EDDL

Düsseldorf International Airport

Düsseldorf, Germany
METAR EDDL 221750Z 19012KT 9999 VCSH FEW045CB BKN300 23/15 Q1009 NOSIG
Observed Flight Rules
Apr-22 @ 17:50 UTC (24 minutes ago) Visual Flight Rules
Wind Visibility Clouds
190° at 12 knots 10,000+ meters
  • Few at 4,500' AGL
  • Broken at 30,000' AGL
Temperatures Readings
Current 23°C / 73°F
Dewpoint 15°C / 59°F
Humidity 61%
Altimeter 29.79" Hg
Pressure 1009 hPa
Elevation 44
METAR EDDL 221750Z 19012KT 9999 VCSH FEW045CB BKN300 23/15 Q1009 NOSIG
Observed Flight Rules
Apr-22 @ 17:50 UTC
(24 minutes ago)
VFR
Wind Visibility
190° at 12 knots 10,000+ meters
Clouds
  • Few at 4,500' AGL
  • Broken at 30,000' AGL
Temperature Dewpoint
23°C / 73°F 15°C / 59°F
Humidity Altimeter Pressure
61% 29.79" Hg 1009 hPa